sensor_id;sensor_type;location;lat;lon;timestamp;temperature;humidity
33476;DHT22;19814;48.224;11.422;2023-02-01T00:00:45;4.40;99.90
33476;DHT22;19814;48.224;11.422;2023-02-01T00:03:11;4.40;99.90
33476;DHT22;19814;48.224;11.422;2023-02-01T00:05:38;4.40;99.90
33476;DHT22;19814;48.224;11.422;2023-02-01T00:08:04;4.40;99.90
33476;DHT22;19814;48.224;11.422;2023-02-01T00:10:29;4.40;99.90
33476;DHT22;19814;48.224;11.422;2023-02-01T00:12:55;4.40;99.90
33476;DHT22;19814;48.224;11.422;2023-02-01T00:15:20;4.40;99.90
33476;DHT22;19814;48.224;11.422;2023-02-01T00:17:46;4.40;99.90
33476;DHT22;19814;48.224;11.422;2023-02-01T00:20:12;4.40;99.90
33476;DHT22;19814;48.224;11.422;2023-02-01T00:22:37;4.40;99.90
33476;DHT22;19814;48.224;11.422;2023-02-01T00:25:03;4.40;99.90
33476;DHT22;19814;48.224;11.422;2023-02-01T00:27:29;4.30;99.90
33476;DHT22;19814;48.224;11.422;2023-02-01T00:29:55;4.30;99.90
33476;DHT22;19814;48.224;11.422;2023-02-01T00:32:20;4.30;99.90
33476;DHT22;19814;48.224;11.422;2023-02-01T00:34:46;4.30;99.90
33476;DHT22;19814;48.224;11.422;2023-02-01T00:37:11;4.20;99.90
33476;DHT22;19814;48.224;11.422;2023-02-01T00:39:37;4.10;99.90
33476;DHT22;19814;48.224;11.422;2023-02-01T00:42:02;4.10;99.90
33476;DHT22;19814;48.224;11.422;2023-02-01T00:44:28;4.10;99.90
33476;DHT22;19814;48.224;11.422;2023-02-01T00:46:58;4.00;99.90
33476;DHT22;19814;48.224;11.422;2023-02-01T00:49:24;4.00;99.90
33476;DHT22;19814;48.224;11.422;2023-02-01T00:51:49;4.00;99.90
33476;DHT22;19814;48.224;11.422;2023-02-01T00:54:15;3.80;99.90
33476;DHT22;19814;48.224;11.422;2023-02-01T00:56:41;3.60;99.90
33476;DHT22;19814;48.224;11.422;2023-02-01T00:59:10;3.60;99.90
33476;DHT22;19814;48.224;11.422;2023-02-01T01:01:36;3.50;99.90
33476;DHT22;19814;48.224;11.422;2023-02-01T01:04:01;3.50;99.90
33476;DHT22;19814;48.224;11.422;2023-02-01T01:06:29;3.60;99.90
33476;DHT22;19814;48.224;11.422;2023-02-01T01:08:56;3.60;99.90
33476;DHT22;19814;48.224;11.422;2023-02-01T01:11:24;3.60;99.90
33476;DHT22;19814;48.224;11.422;2023-02-01T01:13:52;3.60;99.90
33476;DHT22;19814;48.224;11.422;2023-02-01T01:16:20;3.70;99.90
33476;DHT22;19814;48.224;11.422;2023-02-01T01:18:46;3.70;99.90
33476;DHT22;19814;48.224;11.422;2023-02-01T01:21:13;3.70;99.90
33476;DHT22;19814;48.224;11.422;2023-02-01T01:23:39;3.70;99.90
33476;DHT22;19814;48.224;11.422;2023-02-01T01:26:07;3.80;99.90
33476;DHT22;19814;48.224;11.422;2023-02-01T01:28:33;3.80;99.90
33476;DHT22;19814;48.224;11.422;2023-02-01T01:30:58;3.80;99.90
33476;DHT22;19814;48.224;11.422;2023-02-01T01:33:24;3.80;99.90
33476;DHT22;19814;48.224;11.422;2023-02-01T01:35:50;3.70;99.90
33476;DHT22;19814;48.224;11.422;2023-02-01T01:38:15;3.70;99.90
33476;DHT22;19814;48.224;11.422;2023-02-01T01:40:45;3.70;99.90
33476;DHT22;19814;48.224;11.422;2023-02-01T01:43:17;3.70;99.90
33476;DHT22;19814;48.224;11.422;2023-02-01T01:45:44;3.80;99.90
33476;DHT22;19814;48.224;11.422;2023-02-01T01:48:21;3.80;99.90
33476;DHT22;19814;48.224;11.422;2023-02-01T01:53:23;3.70;99.90
33476;DHT22;19814;48.224;11.422;2023-02-01T01:55:51;3.70;99.90
33476;DHT22;19814;48.224;11.422;2023-02-01T01:58:21;3.60;99.90
33476;DHT22;19814;48.224;11.422;2023-02-01T02:00:47;3.60;99.90
33476;DHT22;19814;48.224;11.422;2023-02-01T02:03:27;3.60;99.90
33476;DHT22;19814;48.224;11.422;2023-02-01T02:05:57;3.60;99.90
33476;DHT22;19814;48.224;11.422;2023-02-01T02:08:25;3.60;99.90
33476;DHT22;19814;48.224;11.422;2023-02-01T02:10:52;3.50;99.90
33476;DHT22;19814;48.224;11.422;2023-02-01T02:13:37;3.50;99.90
33476;DHT22;19814;48.224;11.422;2023-02-01T02:16:38;3.50;99.90
33476;DHT22;19814;48.224;11.422;2023-02-01T02:25:19;3.40;99.90
33476;DHT22;19814;48.224;11.422;2023-02-01T02:42:02;3.60;99.90
33476;DHT22;19814;48.224;11.422;2023-02-01T02:45:12;3.60;99.90
33476;DHT22;19814;48.224;11.422;2023-02-01T02:48:21;3.50;99.90
33476;DHT22;19814;48.224;11.422;2023-02-01T02:54:04;3.60;99.90
33476;DHT22;19814;48.224;11.422;2023-02-01T02:56:50;3.60;99.90
33476;DHT22;19814;48.224;11.422;2023-02-01T02:59:35;3.60;99.90
33476;DHT22;19814;48.224;11.422;2023-02-01T03:02:20;3.60;99.90
33476;DHT22;19814;48.224;11.422;2023-02-01T03:05:05;3.60;99.90
33476;DHT22;19814;48.224;11.422;2023-02-01T03:07:54;3.70;99.90
33476;DHT22;19814;48.224;11.422;2023-02-01T03:10:23;3.70;99.90
33476;DHT22;19814;48.224;11.422;2023-02-01T03:12:50;3.80;99.90
33476;DHT22;19814;48.224;11.422;2023-02-01T03:15:45;3.80;99.90
33476;DHT22;19814;48.224;11.422;2023-02-01T03:18:52;3.80;99.90
33476;DHT22;19814;48.224;11.422;2023-02-01T03:21:34;3.80;99.90
33476;DHT22;19814;48.224;11.422;2023-02-01T03:24:04;3.90;99.90
33476;DHT22;19814;48.224;11.422;2023-02-01T03:26:36;3.80;99.90
33476;DHT22;19814;48.224;11.422;2023-02-01T03:29:06;3.80;99.90
33476;DHT22;19814;48.224;11.422;2023-02-01T03:31:33;3.80;99.90
33476;DHT22;19814;48.224;11.422;2023-02-01T03:33:59;3.80;99.90
33476;DHT22;19814;48.224;11.422;2023-02-01T03:36:29;3.80;99.90
33476;DHT22;19814;48.224;11.422;2023-02-01T03:39:17;3.80;99.90
33476;DHT22;19814;48.224;11.422;2023-02-01T03:42:29;3.90;99.90
33476;DHT22;19814;48.224;11.422;2023-02-01T03:44:48;3.90;99.90
33476;DHT22;19814;48.224;11.422;2023-02-01T03:47:20;3.90;99.90
33476;DHT22;19814;48.224;11.422;2023-02-01T03:49:50;3.90;99.90
33476;DHT22;19814;48.224;11.422;2023-02-01T03:52:22;3.90;99.90
33476;DHT22;19814;48.224;11.422;2023-02-01T03:54:49;3.90;99.90
33476;DHT22;19814;48.224;11.422;2023-02-01T03:57:22;3.90;99.90
33476;DHT22;19814;48.224;11.422;2023-02-01T03:59:49;3.80;99.90
33476;DHT22;19814;48.224;11.422;2023-02-01T04:02:15;3.80;99.90
33476;DHT22;19814;48.224;11.422;2023-02-01T04:04:41;3.80;99.90
33476;DHT22;19814;48.224;11.422;2023-02-01T04:07:06;3.80;99.90
33476;DHT22;19814;48.224;11.422;2023-02-01T04:09:32;3.90;99.90
33476;DHT22;19814;48.224;11.422;2023-02-01T04:11:57;3.90;99.90
33476;DHT22;19814;48.224;11.422;2023-02-01T04:14:23;3.90;99.90
33476;DHT22;19814;48.224;11.422;2023-02-01T04:16:48;3.80;99.90
33476;DHT22;19814;48.224;11.422;2023-02-01T04:19:14;3.90;99.90
33476;DHT22;19814;48.224;11.422;2023-02-01T04:21:40;3.80;99.90
33476;DHT22;19814;48.224;11.422;2023-02-01T04:24:05;3.80;99.90
33476;DHT22;19814;48.224;11.422;2023-02-01T04:26:31;3.80;99.90
33476;DHT22;19814;48.224;11.422;2023-02-01T04:28:57;3.90;99.90
33476;DHT22;19814;48.224;11.422;2023-02-01T04:31:22;3.90;99.90
33476;DHT22;19814;48.224;11.422;2023-02-01T04:33:51;3.90;99.90
33476;DHT22;19814;48.224;11.422;2023-02-01T04:36:17;3.90;99.90
33476;DHT22;19814;48.224;11.422;2023-02-01T04:38:44;3.90;99.90
33476;DHT22;19814;48.224;11.422;2023-02-01T04:41:10;3.90;99.90
33476;DHT22;19814;48.224;11.422;2023-02-01T04:43:35;3.90;99.90
33476;DHT22;19814;48.224;11.422;2023-02-01T04:46:01;3.90;99.90
33476;DHT22;19814;48.224;11.422;2023-02-01T04:48:27;3.90;99.90
33476;DHT22;19814;48.224;11.422;2023-02-01T04:50:53;4.00;99.90
33476;DHT22;19814;48.224;11.422;2023-02-01T04:53:18;4.00;99.90
33476;DHT22;19814;48.224;11.422;2023-02-01T04:55:44;4.00;99.90
33476;DHT22;19814;48.224;11.422;2023-02-01T04:58:10;4.00;99.90
33476;DHT22;19814;48.224;11.422;2023-02-01T05:00:37;4.00;99.90
33476;DHT22;19814;48.224;11.422;2023-02-01T05:03:02;4.00;99.90
33476;DHT22;19814;48.224;11.422;2023-02-01T05:05:28;4.10;99.90
33476;DHT22;19814;48.224;11.422;2023-02-01T05:07:54;4.00;99.90
33476;DHT22;19814;48.224;11.422;2023-02-01T05:10:20;4.00;99.90
33476;DHT22;19814;48.224;11.422;2023-02-01T05:12:45;4.00;99.90
33476;DHT22;19814;48.224;11.422;2023-02-01T05:15:30;4.00;99.90
33476;DHT22;19814;48.224;11.422;2023-02-01T05:17:57;4.00;99.90
33476;DHT22;19814;48.224;11.422;2023-02-01T05:20:23;4.10;99.90
33476;DHT22;19814;48.224;11.422;2023-02-01T05:22:48;4.00;99.90
33476;DHT22;19814;48.224;11.422;2023-02-01T05:25:14;4.00;99.90
33476;DHT22;19814;48.224;11.422;2023-02-01T05:27:40;4.00;99.90
33476;DHT22;19814;48.224;11.422;2023-02-01T05:30:06;4.00;99.90
33476;DHT22;19814;48.224;11.422;2023-02-01T05:32:32;4.00;99.90
33476;DHT22;19814;48.224;11.422;2023-02-01T05:34:58;4.00;99.90
33476;DHT22;19814;48.224;11.422;2023-02-01T05:37:23;4.00;99.90
33476;DHT22;19814;48.224;11.422;2023-02-01T05:39:49;4.00;99.90
33476;DHT22;19814;48.224;11.422;2023-02-01T05:42:14;4.00;99.90
33476;DHT22;19814;48.224;11.422;2023-02-01T05:44:40;3.90;99.90
33476;DHT22;19814;48.224;11.422;2023-02-01T05:47:06;4.00;99.90
33476;DHT22;19814;48.224;11.422;2023-02-01T05:49:32;4.00;99.90
33476;DHT22;19814;48.224;11.422;2023-02-01T05:51:57;4.00;99.90
33476;DHT22;19814;48.224;11.422;2023-02-01T05:54:23;4.00;99.90
33476;DHT22;19814;48.224;11.422;2023-02-01T05:56:48;4.00;99.90
33476;DHT22;19814;48.224;11.422;2023-02-01T05:59:14;4.10;99.90
33476;DHT22;19814;48.224;11.422;2023-02-01T06:01:39;4.00;99.90
33476;DHT22;19814;48.224;11.422;2023-02-01T06:04:05;4.00;99.90
33476;DHT22;19814;48.224;11.422;2023-02-01T06:06:30;4.00;99.90
33476;DHT22;19814;48.224;11.422;2023-02-01T06:08:56;4.00;99.90
33476;DHT22;19814;48.224;11.422;2023-02-01T06:11:21;4.00;99.90
33476;DHT22;19814;48.224;11.422;2023-02-01T06:13:47;4.10;99.90
33476;DHT22;19814;48.224;11.422;2023-02-01T06:16:12;4.10;99.90
33476;DHT22;19814;48.224;11.422;2023-02-01T06:18:40;4.20;99.90
33476;DHT22;19814;48.224;11.422;2023-02-01T06:21:06;4.20;99.90
33476;DHT22;19814;48.224;11.422;2023-02-01T06:23:33;4.20;99.90
33476;DHT22;19814;48.224;11.422;2023-02-01T06:26:01;4.10;99.90
33476;DHT22;19814;48.224;11.422;2023-02-01T06:28:28;4.20;99.90
33476;DHT22;19814;48.224;11.422;2023-02-01T06:30:53;4.20;99.90
33476;DHT22;19814;48.224;11.422;2023-02-01T06:33:19;4.20;99.90
33476;DHT22;19814;48.224;11.422;2023-02-01T06:35:44;4.20;99.90
33476;DHT22;19814;48.224;11.422;2023-02-01T06:38:11;4.20;99.90
33476;DHT22;19814;48.224;11.422;2023-02-01T06:40:37;4.20;99.90
33476;DHT22;19814;48.224;11.422;2023-02-01T06:43:03;4.30;99.90
33476;DHT22;19814;48.224;11.422;2023-02-01T06:45:29;4.20;99.90
33476;DHT22;19814;48.224;11.422;2023-02-01T06:47:55;4.20;99.90
33476;DHT22;19814;48.224;11.422;2023-02-01T06:50:20;4.20;99.90
33476;DHT22;19814;48.224;11.422;2023-02-01T06:52:46;4.30;99.90
33476;DHT22;19814;48.224;11.422;2023-02-01T06:55:11;4.30;99.90
33476;DHT22;19814;48.224;11.422;2023-02-01T06:57:38;4.30;99.90
33476;DHT22;19814;48.224;11.422;2023-02-01T07:00:04;4.30;99.90
33476;DHT22;19814;48.224;11.422;2023-02-01T07:02:30;4.30;99.90
33476;DHT22;19814;48.224;11.422;2023-02-01T07:04:55;4.30;99.90
33476;DHT22;19814;48.224;11.422;2023-02-01T07:07:21;4.30;99.90
33476;DHT22;19814;48.224;11.422;2023-02-01T07:09:48;4.40;99.90
33476;DHT22;19814;48.224;11.422;2023-02-01T07:12:14;4.40;99.90
33476;DHT22;19814;48.224;11.422;2023-02-01T07:14:40;4.40;99.90
33476;DHT22;19814;48.224;11.422;2023-02-01T07:17:05;4.40;99.90
33476;DHT22;19814;48.224;11.422;2023-02-01T07:19:31;4.40;99.90
33476;DHT22;19814;48.224;11.422;2023-02-01T07:21:56;4.50;99.90
33476;DHT22;19814;48.224;11.422;2023-02-01T07:24:22;4.50;99.90
33476;DHT22;19814;48.224;11.422;2023-02-01T07:26:48;4.60;99.90
33476;DHT22;19814;48.224;11.422;2023-02-01T07:29:14;4.60;99.90
33476;DHT22;19814;48.224;11.422;2023-02-01T07:31:39;4.70;99.90
33476;DHT22;19814;48.224;11.422;2023-02-01T07:34:05;4.70;99.90
33476;DHT22;19814;48.224;11.422;2023-02-01T07:36:30;4.70;99.90
33476;DHT22;19814;48.224;11.422;2023-02-01T07:38:57;4.70;99.90
33476;DHT22;19814;48.224;11.422;2023-02-01T07:41:23;4.70;99.90
33476;DHT22;19814;48.224;11.422;2023-02-01T07:43:48;4.70;99.90
33476;DHT22;19814;48.224;11.422;2023-02-01T07:46:16;4.70;99.90
33476;DHT22;19814;48.224;11.422;2023-02-01T07:48:41;4.80;99.90
33476;DHT22;19814;48.224;11.422;2023-02-01T07:51:12;4.80;99.90
33476;DHT22;19814;48.224;11.422;2023-02-01T07:53:38;4.70;99.90
33476;DHT22;19814;48.224;11.422;2023-02-01T07:56:15;4.70;99.90
33476;DHT22;19814;48.224;11.422;2023-02-01T07:58:40;4.70;99.90
33476;DHT22;19814;48.224;11.422;2023-02-01T08:01:20;4.70;99.90
33476;DHT22;19814;48.224;11.422;2023-02-01T08:03:50;4.60;99.90
33476;DHT22;19814;48.224;11.422;2023-02-01T08:06:16;4.70;99.90
33476;DHT22;19814;48.224;11.422;2023-02-01T08:08:42;4.70;99.90
33476;DHT22;19814;48.224;11.422;2023-02-01T08:11:10;4.70;99.90
33476;DHT22;19814;48.224;11.422;2023-02-01T08:13:36;4.70;99.90
33476;DHT22;19814;48.224;11.422;2023-02-01T08:16:04;4.70;99.90
33476;DHT22;19814;48.224;11.422;2023-02-01T08:18:30;4.70;99.90
33476;DHT22;19814;48.224;11.422;2023-02-01T08:20:56;4.70;99.90
33476;DHT22;19814;48.224;11.422;2023-02-01T08:23:22;4.80;99.90
33476;DHT22;19814;48.224;11.422;2023-02-01T08:25:48;4.80;99.90
33476;DHT22;19814;48.224;11.422;2023-02-01T08:28:14;4.80;99.90
33476;DHT22;19814;48.224;11.422;2023-02-01T08:30:40;4.80;99.90
33476;DHT22;19814;48.224;11.422;2023-02-01T08:33:07;4.80;99.90
33476;DHT22;19814;48.224;11.422;2023-02-01T08:35:35;4.80;99.90
33476;DHT22;19814;48.224;11.422;2023-02-01T08:38:01;4.90;99.90
33476;DHT22;19814;48.224;11.422;2023-02-01T08:40:27;4.90;99.90
33476;DHT22;19814;48.224;11.422;2023-02-01T08:42:53;4.90;99.90
33476;DHT22;19814;48.224;11.422;2023-02-01T08:45:24;5.00;99.90
33476;DHT22;19814;48.224;11.422;2023-02-01T08:47:50;5.00;99.90
33476;DHT22;19814;48.224;11.422;2023-02-01T08:50:17;5.10;99.90
33476;DHT22;19814;48.224;11.422;2023-02-01T08:52:43;5.00;99.90
33476;DHT22;19814;48.224;11.422;2023-02-01T08:55:09;5.10;99.90
33476;DHT22;19814;48.224;11.422;2023-02-01T08:57:35;5.10;99.90
33476;DHT22;19814;48.224;11.422;2023-02-01T09:00:02;5.10;99.90
33476;DHT22;19814;48.224;11.422;2023-02-01T09:02:28;5.00;99.90
33476;DHT22;19814;48.224;11.422;2023-02-01T09:04:55;5.10;99.90
33476;DHT22;19814;48.224;11.422;2023-02-01T09:07:21;5.10;99.90
33476;DHT22;19814;48.224;11.422;2023-02-01T09:09:47;5.10;99.90
33476;DHT22;19814;48.224;11.422;2023-02-01T09:12:13;5.20;99.90
33476;DHT22;19814;48.224;11.422;2023-02-01T09:14:38;5.20;99.90
33476;DHT22;19814;48.224;11.422;2023-02-01T09:17:04;5.20;99.90
33476;DHT22;19814;48.224;11.422;2023-02-01T09:19:31;5.20;99.90
33476;DHT22;19814;48.224;11.422;2023-02-01T09:21:56;5.30;99.90
33476;DHT22;19814;48.224;11.422;2023-02-01T09:24:22;5.30;99.90
33476;DHT22;19814;48.224;11.422;2023-02-01T09:26:48;5.40;99.90
33476;DHT22;19814;48.224;11.422;2023-02-01T09:29:14;5.50;99.90
33476;DHT22;19814;48.224;11.422;2023-02-01T09:31:40;5.50;99.90
33476;DHT22;19814;48.224;11.422;2023-02-01T09:34:07;5.70;99.90
33476;DHT22;19814;48.224;11.422;2023-02-01T09:36:33;5.70;99.90
33476;DHT22;19814;48.224;11.422;2023-02-01T09:38:59;5.70;99.90
33476;DHT22;19814;48.224;11.422;2023-02-01T09:41:49;5.80;99.90
33476;DHT22;19814;48.224;11.422;2023-02-01T09:47:16;5.90;99.90
33476;DHT22;19814;48.224;11.422;2023-02-01T09:49:58;5.90;99.90
33476;DHT22;19814;48.224;11.422;2023-02-01T09:52:42;5.90;99.90
33476;DHT22;19814;48.224;11.422;2023-02-01T09:55:16;5.90;99.90
33476;DHT22;19814;48.224;11.422;2023-02-01T09:57:53;5.90;99.90
33476;DHT22;19814;48.224;11.422;2023-02-01T10:00:35;5.90;99.90
33476;DHT22;19814;48.224;11.422;2023-02-01T10:03:01;5.90;99.90
33476;DHT22;19814;48.224;11.422;2023-02-01T10:06:01;5.80;99.90
33476;DHT22;19814;48.224;11.422;2023-02-01T10:11:27;5.70;99.90
33476;DHT22;19814;48.224;11.422;2023-02-01T10:14:30;5.70;99.90
33476;DHT22;19814;48.224;11.422;2023-02-01T10:23:11;5.60;99.90
33476;DHT22;19814;48.224;11.422;2023-02-01T10:25:54;5.60;99.90
33476;DHT22;19814;48.224;11.422;2023-02-01T10:28:20;5.60;99.90
33476;DHT22;19814;48.224;11.422;2023-02-01T10:30:48;5.50;99.90
33476;DHT22;19814;48.224;11.422;2023-02-01T10:33:24;5.60;99.90
33476;DHT22;19814;48.224;11.422;2023-02-01T10:36:13;5.50;99.90
33476;DHT22;19814;48.224;11.422;2023-02-01T10:38:42;5.50;99.90
33476;DHT22;19814;48.224;11.422;2023-02-01T10:41:21;5.50;99.90
33476;DHT22;19814;48.224;11.422;2023-02-01T10:43:53;5.50;99.90
33476;DHT22;19814;48.224;11.422;2023-02-01T10:46:20;5.60;99.90
33476;DHT22;19814;48.224;11.422;2023-02-01T10:48:47;5.50;99.90
33476;DHT22;19814;48.224;11.422;2023-02-01T10:51:24;5.60;99.90
33476;DHT22;19814;48.224;11.422;2023-02-01T10:53:58;5.60;99.90
33476;DHT22;19814;48.224;11.422;2023-02-01T10:56:28;5.60;99.90
33476;DHT22;19814;48.224;11.422;2023-02-01T10:59:06;5.60;99.90
33476;DHT22;19814;48.224;11.422;2023-02-01T11:01:37;5.60;99.90
33476;DHT22;19814;48.224;11.422;2023-02-01T11:04:07;5.60;99.90
33476;DHT22;19814;48.224;11.422;2023-02-01T11:06:36;5.60;99.90
33476;DHT22;19814;48.224;11.422;2023-02-01T11:09:18;5.70;99.90
33476;DHT22;19814;48.224;11.422;2023-02-01T11:14:17;5.70;99.90
33476;DHT22;19814;48.224;11.422;2023-02-01T11:16:49;5.60;99.90
33476;DHT22;19814;48.224;11.422;2023-02-01T11:19:16;5.60;99.90
33476;DHT22;19814;48.224;11.422;2023-02-01T11:21:43;5.60;99.90
33476;DHT22;19814;48.224;11.422;2023-02-01T11:24:34;5.60;99.90
33476;DHT22;19814;48.224;11.422;2023-02-01T11:27:03;5.60;99.90
33476;DHT22;19814;48.224;11.422;2023-02-01T11:29:38;5.50;99.90
33476;DHT22;19814;48.224;11.422;2023-02-01T11:32:06;5.30;99.90
33476;DHT22;19814;48.224;11.422;2023-02-01T11:34:54;5.40;99.90
33476;DHT22;19814;48.224;11.422;2023-02-01T11:39:56;5.40;99.90
33476;DHT22;19814;48.224;11.422;2023-02-01T11:42:23;5.30;99.90
33476;DHT22;19814;48.224;11.422;2023-02-01T11:44:48;5.20;99.90
33476;DHT22;19814;48.224;11.422;2023-02-01T11:47:38;5.20;99.90
33476;DHT22;19814;48.224;11.422;2023-02-01T11:50:14;5.20;99.90
33476;DHT22;19814;48.224;11.422;2023-02-01T11:53:19;5.20;99.90
33476;DHT22;19814;48.224;11.422;2023-02-01T12:01:38;5.20;99.90
33476;DHT22;19814;48.224;11.422;2023-02-01T12:12:19;5.50;99.90
33476;DHT22;19814;48.224;11.422;2023-02-01T12:38:06;5.20;99.90
33476;DHT22;19814;48.224;11.422;2023-02-01T12:43:25;5.20;99.90
33476;DHT22;19814;48.224;11.422;2023-02-01T12:46:03;5.20;99.90
33476;DHT22;19814;48.224;11.422;2023-02-01T12:51:36;5.20;99.90
33476;DHT22;19814;48.224;11.422;2023-02-01T12:54:22;5.30;99.90
33476;DHT22;19814;48.224;11.422;2023-02-01T12:56:53;5.30;99.90
33476;DHT22;19814;48.224;11.422;2023-02-01T12:59:31;5.40;99.90
33476;DHT22;19814;48.224;11.422;2023-02-01T13:02:05;5.40;99.90
33476;DHT22;19814;48.224;11.422;2023-02-01T13:04:42;5.40;99.90
33476;DHT22;19814;48.224;11.422;2023-02-01T13:07:11;5.40;99.90
33476;DHT22;19814;48.224;11.422;2023-02-01T13:12:34;5.60;99.90
33476;DHT22;19814;48.224;11.422;2023-02-01T13:17:39;5.60;99.90
33476;DHT22;19814;48.224;11.422;2023-02-01T13:22:36;5.70;99.90
33476;DHT22;19814;48.224;11.422;2023-02-01T13:25:16;5.60;99.90
33476;DHT22;19814;48.224;11.422;2023-02-01T13:27:43;5.60;99.90
33476;DHT22;19814;48.224;11.422;2023-02-01T13:32:52;5.50;99.90
33476;DHT22;19814;48.224;11.422;2023-02-01T13:35:28;5.50;99.90
33476;DHT22;19814;48.224;11.422;2023-02-01T13:43:12;5.30;99.90
33476;DHT22;19814;48.224;11.422;2023-02-01T13:45:45;5.20;99.90
33476;DHT22;19814;48.224;11.422;2023-02-01T13:48:22;5.20;99.90
33476;DHT22;19814;48.224;11.422;2023-02-01T13:50:53;5.20;99.90
33476;DHT22;19814;48.224;11.422;2023-02-01T13:53:32;5.20;99.90
33476;DHT22;19814;48.224;11.422;2023-02-01T13:56:05;5.10;99.90
33476;DHT22;19814;48.224;11.422;2023-02-01T13:58:36;5.10;99.90
33476;DHT22;19814;48.224;11.422;2023-02-01T14:01:35;5.00;99.90
33476;DHT22;19814;48.224;11.422;2023-02-01T14:04:03;4.90;99.90
33476;DHT22;19814;48.224;11.422;2023-02-01T14:09:12;5.00;99.90
33476;DHT22;19814;48.224;11.422;2023-02-01T14:24:26;4.90;99.90
33476;DHT22;19814;48.224;11.422;2023-02-01T14:26:54;5.00;99.90
33476;DHT22;19814;48.224;11.422;2023-02-01T14:29:43;5.00;99.90
33476;DHT22;19814;48.224;11.422;2023-02-01T14:32:18;5.00;99.90
33476;DHT22;19814;48.224;11.422;2023-02-01T14:42:28;5.00;99.90
33476;DHT22;19814;48.224;11.422;2023-02-01T14:47:41;5.00;99.90
33476;DHT22;19814;48.224;11.422;2023-02-01T14:52:37;5.10;99.90
33476;DHT22;19814;48.224;11.422;2023-02-01T14:55:24;5.10;99.90
33476;DHT22;19814;48.224;11.422;2023-02-01T14:57:53;5.20;99.90
33476;DHT22;19814;48.224;11.422;2023-02-01T15:00:26;5.20;99.90
33476;DHT22;19814;48.224;11.422;2023-02-01T15:02:54;5.30;99.90
33476;DHT22;19814;48.224;11.422;2023-02-01T15:05:25;5.40;99.90
33476;DHT22;19814;48.224;11.422;2023-02-01T15:07:52;5.30;99.90
33476;DHT22;19814;48.224;11.422;2023-02-01T15:10:18;5.20;99.90
33476;DHT22;19814;48.224;11.422;2023-02-01T15:12:46;5.20;99.90
33476;DHT22;19814;48.224;11.422;2023-02-01T15:15:22;5.20;99.90
33476;DHT22;19814;48.224;11.422;2023-02-01T15:17:57;5.20;99.90
33476;DHT22;19814;48.224;11.422;2023-02-01T15:20:25;5.20;99.90
33476;DHT22;19814;48.224;11.422;2023-02-01T15:23:02;5.20;99.90
33476;DHT22;19814;48.224;11.422;2023-02-01T15:25:33;5.20;99.90
33476;DHT22;19814;48.224;11.422;2023-02-01T15:28:01;5.20;99.90
33476;DHT22;19814;48.224;11.422;2023-02-01T15:30:29;5.20;99.90
33476;DHT22;19814;48.224;11.422;2023-02-01T15:33:28;5.20;99.90
33476;DHT22;19814;48.224;11.422;2023-02-01T15:35:56;5.20;99.90
33476;DHT22;19814;48.224;11.422;2023-02-01T15:38:35;5.20;99.90
33476;DHT22;19814;48.224;11.422;2023-02-01T15:41:19;5.20;99.90
33476;DHT22;19814;48.224;11.422;2023-02-01T15:46:33;5.20;99.90
33476;DHT22;19814;48.224;11.422;2023-02-01T15:49:01;5.10;99.90
33476;DHT22;19814;48.224;11.422;2023-02-01T15:51:29;5.00;99.90
33476;DHT22;19814;48.224;11.422;2023-02-01T15:53:59;5.00;99.90
33476;DHT22;19814;48.224;11.422;2023-02-01T15:56:33;5.00;99.90
33476;DHT22;19814;48.224;11.422;2023-02-01T15:59:01;5.00;99.90
33476;DHT22;19814;48.224;11.422;2023-02-01T16:01:28;4.90;99.90
33476;DHT22;19814;48.224;11.422;2023-02-01T16:06:36;4.80;99.90
33476;DHT22;19814;48.224;11.422;2023-02-01T16:09:11;4.70;99.90
33476;DHT22;19814;48.224;11.422;2023-02-01T16:11:58;4.70;99.90
33476;DHT22;19814;48.224;11.422;2023-02-01T16:14:24;4.70;99.90
33476;DHT22;19814;48.224;11.422;2023-02-01T16:16:50;4.60;99.90
33476;DHT22;19814;48.224;11.422;2023-02-01T16:19:17;4.50;99.90
33476;DHT22;19814;48.224;11.422;2023-02-01T16:21:42;4.50;99.90
33476;DHT22;19814;48.224;11.422;2023-02-01T16:24:08;4.50;99.90
33476;DHT22;19814;48.224;11.422;2023-02-01T16:26:34;4.50;99.90
33476;DHT22;19814;48.224;11.422;2023-02-01T16:29:00;4.60;99.90
33476;DHT22;19814;48.224;11.422;2023-02-01T16:31:30;4.60;99.90
33476;DHT22;19814;48.224;11.422;2023-02-01T16:33:57;4.60;99.90
33476;DHT22;19814;48.224;11.422;2023-02-01T16:36:24;4.60;99.90
33476;DHT22;19814;48.224;11.422;2023-02-01T16:38:49;4.60;99.90
33476;DHT22;19814;48.224;11.422;2023-02-01T16:41:20;4.60;99.90
33476;DHT22;19814;48.224;11.422;2023-02-01T16:43:49;4.60;99.90
33476;DHT22;19814;48.224;11.422;2023-02-01T16:46:17;4.60;99.90
33476;DHT22;19814;48.224;11.422;2023-02-01T16:48:51;4.60;99.90
33476;DHT22;19814;48.224;11.422;2023-02-01T16:51:17;4.60;99.90
33476;DHT22;19814;48.224;11.422;2023-02-01T16:53:44;4.60;99.90
33476;DHT22;19814;48.224;11.422;2023-02-01T16:56:18;4.60;99.90
33476;DHT22;19814;48.224;11.422;2023-02-01T16:58:44;4.60;99.90
33476;DHT22;19814;48.224;11.422;2023-02-01T17:01:11;4.60;99.90
33476;DHT22;19814;48.224;11.422;2023-02-01T17:03:38;4.60;99.90
33476;DHT22;19814;48.224;11.422;2023-02-01T17:06:03;4.60;99.90
33476;DHT22;19814;48.224;11.422;2023-02-01T17:08:34;4.60;99.90
33476;DHT22;19814;48.224;11.422;2023-02-01T17:11:01;4.60;99.90
33476;DHT22;19814;48.224;11.422;2023-02-01T17:13:27;4.60;99.90
33476;DHT22;19814;48.224;11.422;2023-02-01T17:16:03;4.60;99.90
33476;DHT22;19814;48.224;11.422;2023-02-01T17:18:32;4.60;99.90
33476;DHT22;19814;48.224;11.422;2023-02-01T17:20:59;4.70;99.90
33476;DHT22;19814;48.224;11.422;2023-02-01T17:23:26;4.60;99.90
33476;DHT22;19814;48.224;11.422;2023-02-01T17:25:52;4.70;99.90
33476;DHT22;19814;48.224;11.422;2023-02-01T17:28:18;4.70;99.90
33476;DHT22;19814;48.224;11.422;2023-02-01T17:30:43;4.70;99.90
33476;DHT22;19814;48.224;11.422;2023-02-01T17:33:29;4.70;99.90
33476;DHT22;19814;48.224;11.422;2023-02-01T17:35:56;4.70;99.90
33476;DHT22;19814;48.224;11.422;2023-02-01T17:38:22;4.70;99.90
33476;DHT22;19814;48.224;11.422;2023-02-01T17:40:48;4.70;99.90
33476;DHT22;19814;48.224;11.422;2023-02-01T17:43:15;4.70;99.90
33476;DHT22;19814;48.224;11.422;2023-02-01T17:48:20;4.80;99.90
33476;DHT22;19814;48.224;11.422;2023-02-01T17:50:47;4.80;99.90
33476;DHT22;19814;48.224;11.422;2023-02-01T17:53:15;4.70;99.90
33476;DHT22;19814;48.224;11.422;2023-02-01T17:55:44;4.70;99.90
33476;DHT22;19814;48.224;11.422;2023-02-01T17:58:14;4.70;99.90
33476;DHT22;19814;48.224;11.422;2023-02-01T18:00:41;4.80;99.90
33476;DHT22;19814;48.224;11.422;2023-02-01T18:03:19;4.80;99.90
33476;DHT22;19814;48.224;11.422;2023-02-01T18:05:46;4.80;99.90